Time;durP1;ratioP1;P1;durP2;ratioP2;P2;SDS_P1;SDS_P2;PMS_P1;PMS_P2;Temp;Humidity;BMP_temperature;BMP_pressure;BME280_temperature;BME280_humidity;BME280_pressure;Samples;Min_cycle;Max_cycle;Signal;HPM_P1;HPM_P2
2021/11/22 00:00:25;;;;;;;5.53;2.77;;;;;;;10.83;66.44;101340.03;1882705;76;21038;-58
2021/11/22 00:02:56;;;;;;;9.73;2.98;;;;;;;10.79;66.52;101335.30;1882813;76;21455;-58
2021/11/22 00:05:25;;;;;;;8.98;3.17;;;;;;;10.78;66.66;101336.20;1882638;76;21060;-58
2021/11/22 00:07:53;;;;;;;3.60;2.33;;;;;;;10.74;66.90;101338.98;1882727;76;21445;-58
2021/11/22 00:10:22;;;;;;;7.67;3.25;;;;;;;10.73;67.21;101338.11;1882716;76;21115;-58
2021/11/22 00:12:51;;;;;;;5.50;2.85;;;;;;;10.76;67.21;101331.44;1882697;76;21072;-58
2021/11/22 00:15:21;;;;;;;6.10;2.40;;;;;;;10.79;67.39;101341.89;1882685;76;21455;-58
2021/11/22 00:17:50;;;;;;;4.45;2.85;;;;;;;10.78;67.59;101328.30;1882665;76;21022;-59
2021/11/22 00:20:21;;;;;;;2.87;2.15;;;;;;;10.76;67.73;101332.75;1882668;76;21543;-58
2021/11/22 00:22:52;;;;;;;6.28;2.80;;;;;;;10.75;67.70;101335.43;1882705;76;21030;-58
2021/11/22 00:25:22;;;;;;;5.22;2.30;;;;;;;10.77;67.60;101338.45;1882584;76;21022;-58
2021/11/22 00:27:52;;;;;;;7.95;3.10;;;;;;;10.78;67.77;101328.77;1884251;76;22676;-58
2021/11/22 00:30:23;;;;;;;4.83;2.22;;;;;;;10.78;67.82;101315.13;1838206;77;21081;-59
2021/11/22 00:32:58;;;;;;;3.85;2.58;;;;;;;10.79;67.76;101331.35;1857508;77;21093;-58
2021/11/22 00:35:49;;;;;;;8.30;3.47;;;;;;;10.77;68.13;101321.32;1858655;77;21089;-58
2021/11/22 00:38:17;;;;;;;6.95;3.12;;;;;;;10.77;68.27;101328.34;1858289;77;21140;-57
2021/11/22 00:40:46;;;;;;;3.27;2.12;;;;;;;10.78;68.55;101332.25;1858745;77;21057;-59
2021/11/22 00:43:16;;;;;;;6.10;3.33;;;;;;;10.85;68.50;101329.45;1858751;77;21089;-59
2021/11/22 00:45:44;;;;;;;5.60;2.37;;;;;;;10.86;68.56;101307.45;1858786;77;21151;-58
2021/11/22 00:48:13;;;;;;;8.38;3.52;;;;;;;10.84;68.46;101306.17;1858807;77;21111;-58
2021/11/22 00:50:42;;;;;;;10.28;2.40;;;;;;;10.88;68.48;101322.75;1858654;77;21073;-58
2021/11/22 00:53:11;;;;;;;5.72;2.25;;;;;;;10.91;68.28;101298.95;1858593;77;21168;-58
2021/11/22 00:55:42;;;;;;;4.60;2.10;;;;;;;10.87;68.22;101310.50;1858696;77;22222;-58
2021/11/22 00:58:10;;;;;;;6.80;2.98;;;;;;;10.87;68.53;101288.11;1858652;77;21488;-58
2021/11/22 01:00:40;;;;;;;8.93;2.58;;;;;;;10.87;68.61;101301.28;1858664;77;21493;-58
2021/11/22 01:03:09;;;;;;;5.78;1.82;;;;;;;10.88;68.61;101307.83;1858661;77;21501;-58
2021/11/22 01:05:38;;;;;;;7.87;2.95;;;;;;;10.86;68.50;101296.44;1858644;77;21547;-59
2021/11/22 01:08:06;;;;;;;7.00;2.42;;;;;;;10.81;68.77;101285.21;1858572;77;21073;-59
2021/11/22 01:10:37;;;;;;;7.20;3.33;;;;;;;10.83;68.98;101296.56;1858643;77;21093;-59
2021/11/22 01:13:07;;;;;;;8.23;2.87;;;;;;;10.85;69.15;101304.42;1858708;77;21045;-59
2021/11/22 01:15:36;;;;;;;6.10;2.75;;;;;;;10.85;69.18;101292.56;1858641;77;21065;-58
2021/11/22 01:18:05;;;;;;;6.92;2.80;;;;;;;10.82;69.16;101287.77;1858641;77;21515;-59
2021/11/22 01:20:34;;;;;;;6.00;2.37;;;;;;;10.79;69.13;101297.11;1858500;77;21097;-59
2021/11/22 01:23:09;;;;;;;6.92;3.17;;;;;;;10.78;69.26;101301.95;1858615;77;21488;-59
2021/11/22 01:25:40;;;;;;;6.70;2.72;;;;;;;10.76;69.31;101309.05;1858719;77;21050;-59
2021/11/22 01:28:09;;;;;;;8.20;3.50;;;;;;;10.74;69.61;101304.75;1858666;77;21119;-60
2021/11/22 01:30:39;;;;;;;8.63;3.35;;;;;;;10.73;69.80;101299.91;1880202;76;21099;-58
2021/11/22 01:33:07;;;;;;;5.25;2.98;;;;;;;10.71;69.97;101301.73;1890596;76;21013;-59
2021/11/22 01:35:37;;;;;;;6.53;3.50;;;;;;;10.72;70.21;101311.84;1890703;76;21009;-59
2021/11/22 01:38:06;;;;;;;5.53;3.22;;;;;;;10.73;70.31;101310.91;1890647;76;20993;-58
2021/11/22 01:40:35;;;;;;;6.25;2.75;;;;;;;10.73;70.12;101308.28;1890820;76;21142;-59
2021/11/22 01:43:05;;;;;;;7.47;2.67;;;;;;;10.71;70.50;101321.48;1890747;76;21094;-58
2021/11/22 01:45:34;;;;;;;5.55;2.77;;;;;;;10.70;70.73;101322.41;1890552;76;21420;-58
2021/11/22 01:48:03;;;;;;;7.72;3.55;;;;;;;10.71;70.61;101328.07;1890657;76;21389;-59
2021/11/22 01:50:33;;;;;;;6.58;2.95;;;;;;;10.70;70.92;101332.95;1890765;76;21017;-59
2021/11/22 01:53:02;;;;;;;7.05;3.12;;;;;;;10.73;71.03;101326.72;1890645;76;21079;-60
2021/11/22 01:55:31;;;;;;;7.00;2.70;;;;;;;10.71;70.92;101330.70;1890619;76;21068;-58
2021/11/22 01:58:01;;;;;;;5.58;3.42;;;;;;;10.68;70.72;101322.92;1890538;76;21045;-59
2021/11/22 02:00:39;;;;;;;7.00;3.15;;;;;;;10.66;71.16;101315.52;1890759;76;21084;-58
2021/11/22 02:03:09;;;;;;;7.10;4.30;;;;;;;10.70;71.09;101310.56;1890614;76;21022;-58
2021/11/22 02:05:38;;;;;;;5.83;2.90;;;;;;;10.71;71.12;101318.86;1890834;76;21091;-59
2021/11/22 02:08:07;;;;;;;11.38;4.80;;;;;;;10.73;71.18;101313.08;1890810;76;21045;-58
2021/11/22 02:10:38;;;;;;;6.60;3.17;;;;;;;10.74;71.22;101279.27;1890790;76;21471;-59
2021/11/22 02:13:07;;;;;;;7.75;3.60;;;;;;;10.74;71.14;101305.60;1890761;76;21021;-58
2021/11/22 02:15:36;;;;;;;6.33;3.40;;;;;;;10.71;70.97;101316.22;1890759;76;21522;-59
2021/11/22 02:18:06;;;;;;;4.35;2.60;;;;;;;10.70;71.22;101295.22;1891008;76;21432;-59
2021/11/22 02:20:35;;;;;;;6.75;2.87;;;;;;;10.71;71.18;101307.00;1890891;76;21009;-58
2021/11/22 02:23:10;;;;;;;3.87;2.80;;;;;;;10.73;71.16;101310.45;1890740;76;21129;-58
2021/11/22 02:25:42;;;;;;;8.08;3.33;;;;;;;10.73;71.05;101303.86;1890887;76;21045;-58
2021/11/22 02:28:11;;;;;;;7.83;2.77;;;;;;;10.72;70.85;101307.42;1890889;76;21498;-59
2021/11/22 02:30:43;;;;;;;8.15;3.25;;;;;;;10.68;70.92;101307.11;1887638;75;21045;-58
2021/11/22 02:33:18;;;;;;;5.58;3.17;;;;;;;10.64;70.84;101302.83;1882897;76;21022;-59
2021/11/22 02:35:52;;;;;;;4.30;3.40;;;;;;;10.60;71.06;101303.83;1882823;76;21552;-59
2021/11/22 02:38:23;;;;;;;3.58;2.47;;;;;;;10.59;71.18;101288.96;1882755;76;21417;-59
2021/11/22 02:40:53;;;;;;;6.10;3.35;;;;;;;10.60;71.29;101299.88;1882791;76;21021;-59
2021/11/22 02:43:22;;;;;;;7.12;3.45;;;;;;;10.55;71.30;101289.94;1882753;76;21456;-59
2021/11/22 02:45:51;;;;;;;10.38;2.55;;;;;;;10.57;71.57;101290.78;1882645;76;21033;-59
2021/11/22 02:48:19;;;;;;;4.22;2.52;;;;;;;10.57;71.52;101282.42;1882748;76;21481;-60
2021/11/22 02:50:49;;;;;;;4.95;2.47;;;;;;;10.58;71.71;101283.27;1882721;76;21015;-58
2021/11/22 02:53:17;;;;;;;3.75;2.60;;;;;;;10.60;71.69;101277.50;1882708;76;21480;-59
2021/11/22 02:55:47;;;;;;;6.45;3.55;;;;;;;10.63;71.54;101287.95;1882830;76;21029;-59
2021/11/22 02:58:16;;;;;;;3.98;2.65;;;;;;;10.64;71.36;101296.24;1882837;76;21041;-61
2021/11/22 03:00:45;;;;;;;5.95;3.17;;;;;;;10.61;71.33;101285.36;1882700;76;21088;-58
2021/11/22 03:03:14;;;;;;;6.58;2.50;;;;;;;10.59;71.22;101297.72;1882735;76;21509;-58
2021/11/22 03:05:43;;;;;;;5.97;3.08;;;;;;;10.56;71.25;101288.58;1882728;76;21057;-59
2021/11/22 03:08:12;;;;;;;7.55;2.40;;;;;;;10.56;71.30;101287.73;1882836;76;21018;-58
2021/11/22 03:10:41;;;;;;;10.38;3.12;;;;;;;10.57;71.28;101290.78;1882845;76;21025;-59
2021/11/22 03:13:10;;;;;;;5.60;2.37;;;;;;;10.58;71.32;101291.17;1882631;76;21018;-59
2021/11/22 03:15:39;;;;;;;4.25;1.92;;;;;;;10.59;71.31;101290.28;1882785;76;21029;-59
2021/11/22 03:18:07;;;;;;;5.47;2.52;;;;;;;10.61;71.21;101296.36;1882814;76;21025;-59
2021/11/22 03:20:36;;;;;;;5.35;2.95;;;;;;;10.57;71.03;101302.63;1882814;76;21166;-58
2021/11/22 03:23:05;;;;;;;5.53;3.47;;;;;;;10.53;71.10;101307.55;1882731;76;20993;-59
2021/11/22 03:25:34;;;;;;;5.80;2.65;;;;;;;10.50;71.21;101316.88;1882612;76;21483;-59
2021/11/22 03:28:03;;;;;;;6.80;2.52;;;;;;;10.51;71.38;101302.80;1882702;76;21017;-58
2021/11/22 03:30:33;;;;;;;6.75;3.10;;;;;;;10.51;71.23;101306.31;1882992;76;21108;-59
2021/11/22 03:33:01;;;;;;;6.83;2.83;;;;;;;10.51;71.20;101316.84;1890774;76;21021;-59
2021/11/22 03:35:30;;;;;;;7.53;2.92;;;;;;;10.50;71.15;101316.42;1890704;76;21131;-59
2021/11/22 03:37:59;;;;;;;6.67;2.90;;;;;;;10.48;71.09;101314.75;1890835;76;21010;-59
2021/11/22 03:40:28;;;;;;;5.22;2.70;;;;;;;10.48;71.23;101325.28;1890780;76;21539;-59
2021/11/22 03:45:39;;;;;;;7.25;3.25;;;;;;;10.42;71.07;101324.98;1890715;76;21088;-58
2021/11/22 03:48:09;;;;;;;5.03;2.40;;;;;;;10.36;70.98;101330.44;1890735;76;21018;-60
2021/11/22 03:50:37;;;;;;;6.75;3.00;;;;;;;10.33;71.15;101335.34;1890624;76;21492;-58
2021/11/22 03:53:06;;;;;;;5.00;2.72;;;;;;;10.37;71.14;101327.77;1890665;76;21073;-58
2021/11/22 03:55:35;;;;;;;5.83;2.55;;;;;;;10.36;71.09;101324.70;1890705;76;21538;-58
2021/11/22 03:58:04;;;;;;;7.70;2.72;;;;;;;10.34;71.06;101333.10;1890990;76;21424;-60
2021/11/22 04:00:33;;;;;;;6.55;2.80;;;;;;;10.34;71.07;101333.10;1890741;76;21068;-58
2021/11/22 04:03:01;;;;;;;7.28;2.12;;;;;;;10.38;71.03;101341.78;1890663;76;21502;-59
2021/11/22 04:05:30;;;;;;;4.45;2.40;;;;;;;10.38;71.03;101333.88;1890712;76;21013;-58
2021/11/22 04:07:59;;;;;;;4.90;2.17;;;;;;;10.38;71.05;101333.45;1890719;76;21025;-59
2021/11/22 04:10:28;;;;;;;5.17;2.10;;;;;;;10.45;70.92;101335.89;1890725;76;21475;-59
2021/11/22 04:12:57;;;;;;;7.62;2.50;;;;;;;10.47;70.80;101341.98;1890710;76;21084;-59
2021/11/22 04:15:26;;;;;;;5.10;2.30;;;;;;;10.48;70.74;101340.62;1890920;76;21107;-59
2021/11/22 04:17:55;;;;;;;1.95;1.60;;;;;;;10.48;70.65;101333.19;1890682;76;21081;-58
2021/11/22 04:20:24;;;;;;;7.08;2.80;;;;;;;10.46;70.62;101338.92;1890725;76;21045;-58
2021/11/22 04:22:53;;;;;;;10.30;3.47;;;;;;;10.39;70.59;101341.74;1890745;76;21045;-59
2021/11/22 04:25:23;;;;;;;5.55;2.50;;;;;;;10.33;70.62;101339.30;1890672;76;21053;-58
2021/11/22 04:27:52;;;;;;;4.90;2.90;;;;;;;10.26;70.74;101342.12;1890777;76;21021;-58
2021/11/22 04:30:21;;;;;;;4.17;2.67;;;;;;;10.22;70.88;101347.91;1890576;76;21166;-58
2021/11/22 04:32:50;;;;;;;6.83;2.77;;;;;;;10.18;70.96;101352.83;1890703;75;21464;-59
2021/11/22 04:35:19;;;;;;;4.53;2.30;;;;;;;10.21;71.28;101358.87;1890639;76;21549;-59
2021/11/22 04:37:48;;;;;;;9.05;3.37;;;;;;;10.21;71.23;101361.97;1890702;76;21456;-59
2021/11/22 04:40:18;;;;;;;7.95;3.05;;;;;;;10.23;71.29;101362.78;1890818;76;21065;-59
2021/11/22 04:42:49;;;;;;;5.08;2.50;;;;;;;10.21;71.14;101365.91;1890678;76;21017;-59
2021/11/22 04:45:21;;;;;;;8.20;3.10;;;;;;;10.21;71.32;101363.28;1890776;76;21118;-59
2021/11/22 04:47:51;;;;;;;5.65;2.50;;;;;;;10.21;71.40;101368.55;1890804;76;21005;-58
2021/11/22 04:50:21;;;;;;;4.53;2.55;;;;;;;10.27;72.00;101374.95;1890723;76;21036;-59
2021/11/22 04:52:51;;;;;;;5.92;2.40;;;;;;;10.39;71.79;101379.91;1890809;76;21083;-60
2021/11/22 04:55:21;;;;;;;5.28;2.15;;;;;;;10.54;71.56;101380.39;1890737;76;21002;-60
2021/11/22 04:57:51;;;;;;;8.23;2.92;;;;;;;10.72;71.38;101379.86;1890786;76;21022;-60
2021/11/22 05:00:22;;;;;;;6.40;2.60;;;;;;;10.92;71.27;101378.38;1890770;76;20985;-59
2021/11/22 05:02:51;;;;;;;6.10;2.30;;;;;;;11.13;70.96;101381.69;1890737;76;21001;-59
2021/11/22 05:05:21;;;;;;;4.97;2.30;;;;;;;11.23;70.48;101387.52;1890814;76;20974;-60
2021/11/22 05:07:50;;;;;;;3.90;1.72;;;;;;;11.24;70.17;101386.63;1890575;76;21460;-58
2021/11/22 05:10:21;;;;;;;4.37;1.77;;;;;;;11.27;70.03;101381.27;1890790;76;21079;-58
2021/11/22 05:12:50;;;;;;;4.25;2.22;;;;;;;11.34;69.82;101387.19;1890673;76;21111;-59
2021/11/22 05:15:19;;;;;;;2.22;1.40;;;;;;;11.54;69.52;101386.08;1890779;76;21091;-58
2021/11/22 05:17:48;;;;;;;5.65;1.90;;;;;;;11.89;68.93;101392.42;1890787;76;21538;-59
2021/11/22 05:20:17;;;;;;;4.53;2.08;;;;;;;12.13;68.45;101394.70;1890578;76;21453;-58
2021/11/22 05:22:46;;;;;;;4.92;2.17;;;;;;;12.63;67.68;101394.66;1890734;76;21083;-58
2021/11/22 05:25:16;;;;;;;3.67;2.55;;;;;;;12.93;67.32;101403.69;1890679;76;21558;-58
2021/11/22 05:27:45;;;;;;;4.20;1.60;;;;;;;13.31;66.58;101394.27;1890796;76;21558;-59
2021/11/22 05:30:14;;;;;;;3.80;1.92;;;;;;;13.44;65.75;101397.27;1890791;76;21021;-58
2021/11/22 05:32:43;;;;;;;3.52;1.87;;;;;;;13.59;65.69;101402.87;1890514;76;21500;-59
2021/11/22 05:35:12;;;;;;;9.30;1.87;;;;;;;13.51;65.52;101397.43;1890666;76;21006;-58
2021/11/22 05:37:41;;;;;;;3.00;2.00;;;;;;;13.55;65.32;101408.75;1890651;76;21119;-59
2021/11/22 05:40:10;;;;;;;5.15;1.70;;;;;;;13.44;65.17;101407.00;1890806;76;21017;-58
2021/11/22 05:42:39;;;;;;;4.90;1.30;;;;;;;13.27;65.24;101405.01;1890805;76;21001;-58
2021/11/22 05:45:08;;;;;;;5.08;1.52;;;;;;;13.13;65.05;101403.78;1890723;76;21073;-58
2021/11/22 05:47:37;;;;;;;5.40;1.52;;;;;;;13.03;65.33;101406.36;1890781;76;21009;-58
2021/11/22 05:50:08;;;;;;;4.33;1.40;;;;;;;12.94;65.21;101410.68;1890800;76;21049;-58
2021/11/22 05:52:38;;;;;;;3.15;1.42;;;;;;;12.81;65.41;101408.11;1890781;76;21009;-58
2021/11/22 05:55:13;;;;;;;4.25;1.87;;;;;;;12.73;65.51;101416.33;1890913;76;21075;-59
2021/11/22 05:57:40;;;;;;;4.60;1.72;;;;;;;12.70;65.57;101415.11;1890801;76;21095;-59
2021/11/22 06:00:10;;;;;;;2.15;1.60;;;;;;;12.69;65.64;101413.41;1890793;76;21057;-58
2021/11/22 06:02:42;;;;;;;2.55;1.25;;;;;;;12.76;65.58;101417.52;1890927;76;21042;-59
2021/11/22 06:05:11;;;;;;;4.12;1.50;;;;;;;12.82;64.93;101413.78;1890808;76;21502;-59
2021/11/22 06:07:40;;;;;;;3.77;1.30;;;;;;;12.83;65.02;101417.69;1890738;76;21043;-59
2021/11/22 06:10:09;;;;;;;3.20;1.25;;;;;;;12.92;64.91;101411.20;1890729;76;21053;-59
2021/11/22 06:12:38;;;;;;;2.12;1.20;;;;;;;13.30;64.03;101416.80;1890777;76;21543;-59
2021/11/22 06:15:07;;;;;;;2.95;1.45;;;;;;;14.36;62.36;101407.55;1890783;76;21445;-60
2021/11/22 06:17:37;;;;;;;7.42;1.50;;;;;;;15.51;60.15;101418.59;1890746;76;21041;-59
2021/11/22 06:20:07;;;;;;;4.72;1.52;;;;;;;15.81;58.70;101411.81;1890775;76;21487;-58
2021/11/22 06:22:36;;;;;;;4.45;1.17;;;;;;;16.54;57.46;101404.96;1890854;76;21001;-59
2021/11/22 06:25:06;;;;;;;2.27;1.32;;;;;;;17.28;55.71;101414.23;1890970;76;21416;-59
2021/11/22 06:27:35;;;;;;;3.22;1.30;;;;;;;17.80;54.63;101414.37;1890781;76;20998;-58
2021/11/22 06:30:06;;;;;;;2.95;1.17;;;;;;;17.95;53.01;101409.97;1890781;76;21456;-58
2021/11/22 06:32:35;;;;;;;4.55;1.57;;;;;;;18.00;51.63;101401.23;1890905;76;21049;-59
2021/11/22 06:35:06;;;;;;;3.05;1.55;;;;;;;18.35;51.08;101403.55;1890945;76;21038;-59
2021/11/22 06:37:35;;;;;;;3.17;1.55;;;;;;;18.93;50.77;101403.59;1890688;76;21154;-59
2021/11/22 06:40:08;;;;;;;4.20;1.60;;;;;;;19.50;49.95;101401.23;1890765;76;21452;-59
2021/11/22 06:42:38;;;;;;;6.00;1.50;;;;;;;19.95;46.73;101383.94;1890773;76;21459;-59
2021/11/22 06:45:09;;;;;;;4.17;1.40;;;;;;;19.64;45.37;101391.34;1890849;76;21091;-59
2021/11/22 06:47:38;;;;;;;2.67;1.30;;;;;;;19.80;45.58;101395.68;1890823;76;21380;-61
2021/11/22 06:50:08;;;;;;;2.90;1.40;;;;;;;20.15;45.66;101390.59;1890744;76;21144;-58
2021/11/22 06:52:37;;;;;;;2.60;1.32;;;;;;;20.42;44.33;101389.16;1890775;76;21095;-59
2021/11/22 06:55:07;;;;;;;2.37;1.45;;;;;;;20.61;44.15;101383.38;1890727;76;21518;-59
2021/11/22 06:57:36;;;;;;;3.02;1.95;;;;;;;20.97;43.99;101379.03;1890720;76;21059;-60
2021/11/22 07:00:08;;;;;;;2.30;1.20;;;;;;;21.29;42.91;101377.63;1891034;76;20994;-59
2021/11/22 07:02:37;;;;;;;4.47;1.65;;;;;;;21.38;42.08;101375.11;1890834;76;21009;-59
2021/11/22 07:05:08;;;;;;;2.95;1.57;;;;;;;21.43;41.94;101370.73;1890834;76;21009;-59
2021/11/22 07:07:37;;;;;;;4.62;1.98;;;;;;;21.47;41.58;101366.03;1890838;76;21010;-59
2021/11/22 07:10:07;;;;;;;2.08;1.40;;;;;;;21.17;42.12;101357.95;1890744;76;21010;-59
2021/11/22 07:12:36;;;;;;;5.28;1.60;;;;;;;21.42;41.86;101359.67;1890876;76;21009;-59
2021/11/22 07:15:06;;;;;;;1.85;1.17;;;;;;;21.65;40.44;101367.81;1890628;76;20989;-59
2021/11/22 07:17:34;;;;;;;4.53;1.50;;;;;;;21.46;39.76;101370.55;1890843;76;20989;-59
2021/11/22 07:20:04;;;;;;;4.97;1.50;;;;;;;21.44;39.85;101379.16;1890755;76;21021;-59
2021/11/22 07:22:33;;;;;;;2.45;1.45;;;;;;;21.44;39.79;101369.78;1890837;76;21037;-59
2021/11/22 07:25:01;;;;;;;2.52;1.10;;;;;;;21.69;39.55;101349.19;1890734;76;20986;-59
2021/11/22 07:27:30;;;;;;;4.70;1.62;;;;;;;22.06;38.67;101361.09;1890619;76;21111;-59
2021/11/22 07:30:00;;;;;;;3.55;1.50;;;;;;;22.30;38.54;101370.45;1890748;76;21061;-59
2021/11/22 07:32:29;;;;;;;4.87;1.40;;;;;;;22.09;37.99;101364.89;1890677;76;21060;-59
2021/11/22 07:34:58;;;;;;;3.00;1.35;;;;;;;22.46;38.17;101367.39;1890673;76;21073;-60
2021/11/22 07:37:27;;;;;;;2.70;1.37;;;;;;;22.32;37.19;101365.31;1890747;76;21111;-61
2021/11/22 07:39:57;;;;;;;3.62;1.47;;;;;;;22.13;37.75;101368.56;1889635;76;21092;-58
2021/11/22 07:42:25;;;;;;;2.17;1.57;;;;;;;22.53;37.70;101367.27;1886820;76;21044;-59
2021/11/22 07:44:54;;;;;;;3.05;1.55;;;;;;;23.00;36.61;101364.39;1886696;76;21040;-59
2021/11/22 07:47:22;;;;;;;3.65;1.50;;;;;;;22.64;36.15;101370.44;1886879;76;21020;-59
2021/11/22 07:49:51;;;;;;;2.60;1.55;;;;;;;22.09;37.32;101358.19;1886690;76;21149;-59
2021/11/22 07:52:22;;;;;;;2.95;1.72;;;;;;;21.90;38.28;101367.66;1886854;76;21130;-59
2021/11/22 07:54:51;;;;;;;6.45;2.27;;;;;;;21.81;38.27;101356.30;1886801;76;21515;-59
2021/11/22 07:57:21;;;;;;;3.72;2.08;;;;;;;22.01;38.15;101365.98;1886760;76;21012;-59
2021/11/22 07:59:51;;;;;;;3.33;1.77;;;;;;;21.71;38.01;101363.36;1886675;76;21068;-58
2021/11/22 08:02:20;;;;;;;1.77;1.25;;;;;;;20.58;39.96;101379.58;1886777;76;21068;-59
2021/11/22 08:04:50;;;;;;;3.50;1.67;;;;;;;19.87;40.73;101358.23;1886590;76;21107;-59
2021/11/22 08:07:22;;;;;;;3.85;1.45;;;;;;;19.02;42.69;101365.64;1886679;76;21185;-59
2021/11/22 08:09:57;;;;;;;2.62;1.52;;;;;;;19.56;42.01;101368.28;1886753;76;21080;-59
2021/11/22 08:12:30;;;;;;;1.57;1.30;;;;;;;19.01;42.99;101356.75;1886799;76;21051;-58
2021/11/22 08:15:01;;;;;;;5.33;1.37;;;;;;;19.30;42.98;101368.69;1886946;76;21110;-59
2021/11/22 08:17:31;;;;;;;2.10;1.70;;;;;;;19.42;42.99;101367.00;1886479;76;21048;-59
2021/11/22 08:20:00;;;;;;;2.60;1.60;;;;;;;20.21;41.70;101359.89;1886639;76;21044;-58
2021/11/22 08:22:28;;;;;;;3.27;1.40;;;;;;;20.76;41.04;101330.58;1886784;76;21102;-58
2021/11/22 08:24:57;;;;;;;4.22;1.80;;;;;;;21.17;39.59;101340.09;1886901;76;21110;-58
2021/11/22 08:27:29;;;;;;;4.83;1.77;;;;;;;22.10;38.39;101319.67;1886693;76;21097;-58
2021/11/22 08:30:00;;;;;;;6.53;1.65;;;;;;;22.45;37.18;101317.40;1886585;76;21024;-59
2021/11/22 08:32:30;;;;;;;5.10;1.52;;;;;;;22.87;37.17;101330.51;1885973;76;21142;-58
2021/11/22 08:34:59;;;;;;;4.70;1.92;;;;;;;22.57;37.15;101343.23;1883125;76;21088;-58
2021/11/22 08:37:27;;;;;;;3.15;2.05;;;;;;;21.12;39.38;101332.88;1876003;76;21134;-59
2021/11/22 08:39:56;;;;;;;2.50;1.40;;;;;;;20.91;39.84;101321.06;1875909;76;21040;-58
2021/11/22 08:42:25;;;;;;;6.55;2.02;;;;;;;20.78;40.36;101323.78;1875832;76;21044;-59
2021/11/22 08:44:54;;;;;;;3.05;2.22;;;;;;;19.90;41.74;101323.29;1875908;76;21467;-59
2021/11/22 08:47:23;;;;;;;3.72;2.12;;;;;;;19.95;41.89;101325.14;1875926;76;21491;-58
2021/11/22 08:49:52;;;;;;;4.50;1.62;;;;;;;20.50;41.11;101318.22;1875911;76;21045;-58
2021/11/22 08:52:22;;;;;;;4.10;1.50;;;;;;;20.52;41.18;101322.47;1875929;76;21557;-59
2021/11/22 08:54:53;;;;;;;3.70;1.77;;;;;;;20.71;40.41;101301.11;1875839;76;21122;-59
2021/11/22 08:57:22;;;;;;;5.05;2.37;;;;;;;20.37;41.43;101309.72;1876003;76;21079;-59
2021/11/22 08:59:51;;;;;;;5.15;2.20;;;;;;;20.50;41.40;101304.84;1875859;76;21645;-59
2021/11/22 09:02:21;;;;;;;3.17;1.90;;;;;;;21.15;40.27;101297.81;1876005;76;21095;-59
2021/11/22 09:04:51;;;;;;;5.08;2.72;;;;;;;21.94;38.65;101302.09;1875935;76;21166;-59
2021/11/22 09:07:20;;;;;;;3.35;1.82;;;;;;;20.65;40.57;101294.87;1875886;76;21154;-60
2021/11/22 09:09:49;;;;;;;4.45;2.12;;;;;;;20.03;42.11;101301.91;1875855;76;21068;-59
2021/11/22 09:12:18;;;;;;;4.80;2.00;;;;;;;20.69;41.44;101293.19;1876025;76;21052;-59
2021/11/22 09:14:47;;;;;;;3.40;1.65;;;;;;;20.01;42.32;101299.34;1876014;76;21136;-59
2021/11/22 09:17:17;;;;;;;4.05;2.35;;;;;;;18.82;44.69;101297.55;1876026;76;21072;-59
2021/11/22 09:19:46;;;;;;;4.30;2.60;;;;;;;18.63;45.79;101301.85;1875997;76;21081;-58
2021/11/22 09:22:15;;;;;;;6.53;2.27;;;;;;;18.17;46.81;101316.27;1875917;76;21652;-59
2021/11/22 09:24:46;;;;;;;5.78;2.85;;;;;;;18.10;47.01;101307.78;1876119;76;21044;-59
2021/11/22 09:27:15;;;;;;;6.70;2.40;;;;;;;19.36;44.81;101304.19;1876099;76;21017;-59
2021/11/22 09:29:45;;;;;;;4.20;2.55;;;;;;;19.62;43.77;101318.92;1876028;76;21471;-59
2021/11/22 09:32:13;;;;;;;5.03;2.67;;;;;;;20.41;42.42;101303.17;1876012;76;21601;-59
2021/11/22 09:34:42;;;;;;;5.50;3.42;;;;;;;21.72;40.07;101302.06;1875917;76;21009;-59
2021/11/22 09:37:11;;;;;;;5.20;2.42;;;;;;;22.55;37.11;101315.66;1861174;75;21103;-60
2021/11/22 09:39:40;;;;;;;5.22;3.10;;;;;;;22.93;37.07;101304.98;1859766;77;21135;-59
2021/11/22 09:42:09;;;;;;;6.10;3.35;;;;;;;22.94;35.59;101243.57;1859683;77;21142;-58
2021/11/22 09:44:38;;;;;;;7.08;3.47;;;;;;;22.91;35.19;101282.78;1859676;77;21515;-60
2021/11/22 09:47:07;;;;;;;8.30;3.58;;;;;;;23.01;35.13;101276.99;1859606;77;21020;-60
2021/11/22 09:49:37;;;;;;;7.65;3.90;;;;;;;23.29;34.90;101280.08;1859778;77;21126;-59
2021/11/22 09:52:07;;;;;;;6.08;3.35;;;;;;;23.65;34.15;101238.97;1859675;77;21507;-59
2021/11/22 09:54:35;;;;;;;7.83;3.95;;;;;;;23.87;34.36;101259.49;1859792;77;21059;-60
2021/11/22 09:57:04;;;;;;;5.37;3.42;;;;;;;24.27;33.36;101266.72;1859751;77;21126;-58
2021/11/22 09:59:33;;;;;;;9.40;4.30;;;;;;;24.20;32.99;101267.77;1859651;77;21089;-59
2021/11/22 10:02:02;;;;;;;7.53;3.40;;;;;;;23.79;33.40;101265.98;1859763;77;21068;-59
2021/11/22 10:04:33;;;;;;;6.40;3.37;;;;;;;23.79;33.87;101253.44;1859676;77;21076;-60
2021/11/22 10:07:04;;;;;;;5.28;2.92;;;;;;;23.85;34.09;101256.93;1859643;77;21526;-59
2021/11/22 10:09:37;;;;;;;5.97;2.70;;;;;;;23.93;34.57;101253.56;1859654;77;21133;-60
2021/11/22 10:12:12;;;;;;;5.75;3.22;;;;;;;24.13;34.46;101243.74;1859691;77;21149;-59
2021/11/22 10:14:49;;;;;;;6.28;4.28;;;;;;;24.02;34.44;101270.74;1859678;77;21604;-60
2021/11/22 10:17:38;;;;;;;6.50;3.65;;;;;;;23.67;34.10;101216.33;1859659;77;21056;-60
2021/11/22 10:20:12;;;;;;;6.25;3.02;;;;;;;23.53;34.85;101251.61;1859669;77;21091;-59
2021/11/22 10:23:08;;;;;;;5.15;2.90;;;;;;;23.57;34.86;101249.51;1859574;77;21134;-59
2021/11/22 10:25:38;;;;;;;7.00;3.52;;;;;;;23.40;35.31;101259.87;1859474;77;21032;-59
2021/11/22 10:28:15;;;;;;;5.75;2.95;;;;;;;23.91;34.82;101243.94;1859748;77;21085;-59
2021/11/22 10:30:49;;;;;;;8.10;3.22;;;;;;;23.95;34.77;101254.78;1859617;77;21052;-61
2021/11/22 10:33:21;;;;;;;6.05;2.83;;;;;;;23.71;34.56;101249.17;1859745;77;21459;-60
2021/11/22 10:35:53;;;;;;;;;;;;;;;23.16;35.39;101219.82;1862358;76;21162;-59
2021/11/22 10:38:27;;;;;;;5.90;3.02;;;;;;;23.17;35.62;101247.06;1859637;77;20412;-59
2021/11/22 10:41:05;;;;;;;6.03;3.05;;;;;;;23.33;35.65;101257.34;1859650;77;21040;-59
2021/11/22 10:43:39;;;;;;;4.33;2.52;;;;;;;23.19;36.00;101260.36;1859084;77;21613;-59
2021/11/22 10:46:10;;;;;;;7.08;3.55;;;;;;;23.48;36.03;101253.36;1859769;77;21114;-60
2021/11/22 10:48:42;;;;;;;4.90;2.35;;;;;;;23.48;35.84;101256.55;1859649;77;21052;-59
2021/11/22 10:51:17;;;;;;;5.37;2.52;;;;;;;23.19;36.12;101242.91;1859698;77;21098;-59
2021/11/22 10:53:48;;;;;;;5.45;2.55;;;;;;;22.94;36.57;101257.00;1859533;77;21145;-59
2021/11/22 10:56:26;;;;;;;4.37;2.62;;;;;;;22.22;37.85;101244.93;1859643;77;21130;-60
2021/11/22 10:59:12;;;;;;;4.60;2.27;;;;;;;21.46;39.45;101251.83;1859634;77;21071;-58
2021/11/22 11:01:50;;;;;;;7.62;3.58;;;;;;;21.45;39.47;101229.55;1859658;77;21096;-60
2021/11/22 11:04:26;;;;;;;3.85;2.70;;;;;;;21.79;39.05;101217.53;1859564;77;21043;-58
2021/11/22 11:07:09;;;;;;;4.70;3.20;;;;;;;21.39;39.80;101239.34;1859660;77;21079;-59
2021/11/22 11:09:41;;;;;;;5.97;2.75;;;;;;;21.27;40.06;101226.91;1859859;77;21059;-59
2021/11/22 11:12:21;;;;;;;3.98;2.50;;;;;;;21.78;39.45;101235.44;1859689;77;21056;-59
2021/11/22 11:14:52;;;;;;;6.17;2.92;;;;;;;21.94;39.13;101227.02;1859549;77;21131;-60
2021/11/22 11:17:27;;;;;;;5.75;2.47;;;;;;;21.94;39.07;101226.18;1859712;77;21087;-59
2021/11/22 11:19:58;;;;;;;7.12;3.20;;;;;;;21.48;39.60;101222.59;1859643;77;21600;-59
2021/11/22 11:22:29;;;;;;;6.22;3.33;;;;;;;21.01;40.37;101221.22;1859768;77;21055;-59
2021/11/22 11:24:59;;;;;;;5.62;2.92;;;;;;;20.97;40.57;101220.22;1859699;77;21032;-59
2021/11/22 11:27:28;;;;;;;10.03;3.77;;;;;;;20.75;40.88;101244.59;1859633;77;21024;-60
2021/11/22 11:29:57;;;;;;;10.55;3.67;;;;;;;20.34;41.67;101225.69;1859641;77;21083;-59
2021/11/22 11:32:28;;;;;;;5.20;3.40;;;;;;;20.02;42.43;101211.98;1859758;77;21056;-59
2021/11/22 11:34:57;;;;;;;8.05;3.80;;;;;;;19.90;42.88;101223.08;1859661;77;21126;-61
2021/11/22 11:37:54;;;;;;;5.85;3.17;;;;;;;19.67;43.32;101215.30;1859507;76;21157;-60
2021/11/22 11:40:42;;;;;;;7.17;3.90;;;;;;;19.50;43.78;101215.13;1828545;77;21140;-57